TPOK1: Kansas River, State-Line, KS

                                SHEF ID:       TPOK1     MARAIS DES CYGNES R NR KS-MO ST
STATION TYPE:

STAGE STAGE(2) RIV-FLOW BAT-LOAD
ft ft cfs volt
Ccp-Rev Ccp-Rev Ccp-Rev Ccp-Rev
(America/Chicago)
07/08 00:00 7.79 7.79 2001 12.50
07/08 01:00 7.72 7.72 1960 12.48
07/08 02:00 7.69 7.63 1942 12.44
07/08 03:00 7.63 7.64 1907 12.44
07/08 04:00 7.58 7.58 1878 12.40
07/08 05:00 7.56 7.54 1867 12.39
07/08 06:00 7.51 7.55 1838 12.37
07/08 07:00 7.51 7.48 1838 12.37
07/08 08:00 7.48 7.46 1821 12.40
07/08 09:00 7.45 7.45 1804 12.79
07/08 10:00 7.47 7.43 1815 13.25
07/08 11:00 7.48 7.46 1821 12.88
07/08 12:00 7.50 7.49 1832 13.32
07/08 13:00 7.51 7.50 1838 13.26
07/08 14:00 7.55 7.54 1861 13.22
07/08 15:00 7.58 7.56 1878 13.03
07/08 16:00 7.61 7.64 1896 12.82
07/08 17:00 7.66 7.62 1925 12.74
07/08 18:00 7.69 7.71 1942 12.67
07/08 19:00 7.74 7.68 1972 12.67
07/08 20:00 7.79 7.77 2001 12.60
07/08 21:00 7.84 7.79 2031 12.56
07/08 22:00 7.87 7.87 2049 12.53
07/08 23:00 7.88 7.86 2055 12.51
Data processed at Thu 09Jul2026 04:52 GMT

NOTICE: If you are parsing this page

Please convert to using our Data API. Starting early 2026 we will be migrating to: https://water.usace.army.mil with modern pages rendered in JavaScript. When this migration completes you will no longer be able to scrape this page! CWMSDataAPI (CDA)

Timeseries IDs (TSIDs)

TSIDs used from left to right in the data table
MKSL.Stage.Inst.1Hour.0.Ccp-Rev
MKSL.Stage-Alt.Inst.1Hour.0.Ccp-Rev
MKSL.Flow.Inst.1Hour.0.Ccp-Rev
MKSL.Volt-Battery Load.Inst.1Hour.0.Ccp-Rev

                            

All information presented herein is the property of the government of the United States of America and may be revised or deleted at any time without prior notice. Dissemination of this information without the expressed written consent of the Public Affairs Office, Tulsa District U.S. Army Corps of Engineers is strictly prohibited. These data are gathered electronically and, as presented, have NOT undergone any form of quality control. These data are NOT guaranteed to be valid or correct.